createdAt,value
2023-08-14T00:02:11.838Z,100884.29
2023-08-14T00:04:38.965Z,100883.31
2023-08-14T00:07:06.238Z,100884.06
2023-08-14T00:09:33.393Z,100881.10
2023-08-14T00:12:03.896Z,100880.30
2023-08-14T00:14:31.094Z,100878.88
2023-08-14T00:16:58.184Z,100880.16
2023-08-14T00:19:25.479Z,100881.45
2023-08-14T00:21:52.540Z,100884.48
2023-08-14T00:24:19.666Z,100882.36
2023-08-14T00:26:46.816Z,100885.22
2023-08-14T00:29:13.901Z,100887.77
2023-08-14T00:31:42.754Z,100882.86
2023-08-14T00:34:09.983Z,100887.05
2023-08-14T00:36:37.160Z,100883.91
2023-08-14T00:39:06.064Z,100880.92
2023-08-14T00:41:33.561Z,100886.09
2023-08-14T00:44:00.699Z,100888.10
2023-08-14T00:46:28.043Z,100884.20
2023-08-14T00:48:55.561Z,100889.80
2023-08-14T00:51:22.965Z,100883.83
2023-08-14T00:53:50.915Z,100882.56
2023-08-14T00:56:18.615Z,100888.05
2023-08-14T00:58:45.730Z,100890.93
2023-08-14T01:01:12.971Z,100894.73
2023-08-14T01:03:41.341Z,100897.21
2023-08-14T01:06:08.686Z,100898.77
2023-08-14T01:08:36.054Z,100897.19
2023-08-14T01:11:24.424Z,100893.14
2023-08-14T01:14:21.185Z,100893.48
2023-08-14T01:16:52.847Z,100889.45
2023-08-14T01:19:26.185Z,100885.45
2023-08-14T01:22:12.635Z,100886.96
2023-08-14T01:24:52.556Z,100886.15
2023-08-14T01:27:20.514Z,100892.73
2023-08-14T01:29:58.519Z,100891.04
2023-08-14T01:32:25.719Z,100898.92
2023-08-14T01:34:53.288Z,100897.57
2023-08-14T01:37:34.424Z,100899.84
2023-08-14T01:40:10.974Z,100897.17
2023-08-14T01:42:40.420Z,100897.34
2023-08-14T01:45:14.171Z,100896.86
2023-08-14T01:47:41.512Z,100892.17
2023-08-14T01:50:08.931Z,100898.29
2023-08-14T01:52:36.007Z,100899.61
2023-08-14T01:55:03.926Z,100900.88
2023-08-14T01:57:32.472Z,100904.85
2023-08-14T01:59:59.544Z,100906.20
2023-08-14T02:02:27.548Z,100903.77
2023-08-14T02:04:58.391Z,100905.48
2023-08-14T02:07:25.540Z,100909.56
2023-08-14T02:09:56.490Z,100911.39
2023-08-14T02:12:23.694Z,100913.61
2023-08-14T02:14:50.906Z,100917.54
2023-08-14T02:17:19.506Z,100918.11
2023-08-14T02:19:47.125Z,100914.84
2023-08-14T02:22:14.306Z,100916.13
2023-08-14T02:24:41.493Z,100913.67
2023-08-14T02:27:08.622Z,100915.08
2023-08-14T02:29:35.978Z,100920.29
2023-08-14T02:32:03.120Z,100916.78
2023-08-14T02:34:49.746Z,100918.44
2023-08-14T02:37:18.157Z,100922.27
2023-08-14T02:39:45.479Z,100921.47
2023-08-14T02:42:13.376Z,100922.54
2023-08-14T02:44:40.541Z,100928.48
2023-08-14T02:47:07.652Z,100928.36
2023-08-14T02:49:34.876Z,100928.50
2023-08-14T02:52:02.069Z,100928.86
2023-08-14T02:54:29.244Z,100928.27
2023-08-14T02:56:56.398Z,100924.11
2023-08-14T02:59:23.724Z,100925.97
2023-08-14T03:01:50.819Z,100926.50
2023-08-14T03:04:18.456Z,100926.48
2023-08-14T03:06:46.514Z,100925.25
2023-08-14T03:09:13.754Z,100925.91
2023-08-14T03:11:40.928Z,100923.84
2023-08-14T03:14:08.575Z,100925.21
2023-08-14T03:16:35.771Z,100923.39
2023-08-14T03:19:03.345Z,100923.69
2023-08-14T03:21:30.550Z,100923.55
2023-08-14T03:23:57.744Z,100925.02
2023-08-14T03:26:24.930Z,100927.34
2023-08-14T03:28:52.204Z,100927.31
2023-08-14T03:31:19.414Z,100931.88
2023-08-14T03:33:46.658Z,100932.36
2023-08-14T03:36:15.741Z,100933.27
2023-08-14T03:38:42.868Z,100932.96
2023-08-14T03:41:11.787Z,100935.17
2023-08-14T03:43:38.992Z,100931.35
2023-08-14T03:46:06.120Z,100930.92
2023-08-14T03:48:33.296Z,100931.52
2023-08-14T03:51:00.348Z,100931.74
2023-08-14T03:53:27.437Z,100924.85
2023-08-14T03:55:54.583Z,100926.52
2023-08-14T03:58:21.812Z,100922.34
2023-08-14T04:00:48.881Z,100928.46
2023-08-14T04:03:16.204Z,100928.36
2023-08-14T04:05:44.534Z,100929.13
2023-08-14T04:08:12.416Z,100930.40
2023-08-14T04:10:40.463Z,100934.20
2023-08-14T04:13:11.527Z,100936.99
2023-08-14T04:15:38.877Z,100938.48
2023-08-14T04:18:06.205Z,100936.81
2023-08-14T04:20:33.587Z,100937.02
2023-08-14T04:23:00.674Z,100939.65
2023-08-14T04:25:27.777Z,100943.58
2023-08-14T04:27:55.935Z,100946.06
2023-08-14T04:30:23.123Z,100946.41
2023-08-14T04:32:51.053Z,100950.54
2023-08-14T04:35:18.662Z,100948.66
2023-08-14T04:37:47.571Z,100946.38
2023-08-14T04:40:14.689Z,100949.09
2023-08-14T04:42:42.925Z,100958.77
2023-08-14T04:45:11.941Z,100963.62
2023-08-14T04:47:39.064Z,100967.20
2023-08-14T04:50:07.304Z,100968.11
2023-08-14T04:52:34.473Z,100971.77
2023-08-14T04:55:01.850Z,100973.71
2023-08-14T04:57:33.413Z,100975.37
2023-08-14T05:00:00.807Z,100977.25
2023-08-14T05:02:30.675Z,100978.50
2023-08-14T05:04:57.989Z,100986.48
2023-08-14T05:07:27.467Z,100988.09
2023-08-14T05:09:55.138Z,100986.51
2023-08-14T05:12:22.419Z,100981.66
2023-08-14T05:14:49.577Z,100980.52
2023-08-14T05:17:18.048Z,100982.39
2023-08-14T05:19:45.205Z,100981.20
2023-08-14T05:22:12.327Z,100983.83
2023-08-14T05:24:39.448Z,100983.46
2023-08-14T05:27:06.542Z,100988.04
2023-08-14T05:29:33.619Z,100990.29
2023-08-14T05:32:01.550Z,100990.05
2023-08-14T05:34:28.821Z,100993.11
2023-08-14T05:36:55.935Z,100993.63
2023-08-14T05:39:23.067Z,100995.31
2023-08-14T05:41:51.197Z,100996.88
2023-08-14T05:44:18.967Z,101004.46
2023-08-14T05:46:48.241Z,101007.34
2023-08-14T05:49:18.676Z,101009.21
2023-08-14T05:51:46.251Z,101008.00
2023-08-14T05:54:13.463Z,101006.42
2023-08-14T05:56:41.740Z,101000.48
2023-08-14T05:59:09.115Z,101000.65
2023-08-14T06:01:36.282Z,100994.48
2023-08-14T06:04:03.506Z,100993.08
2023-08-14T06:06:31.649Z,100992.07
2023-08-14T06:09:01.058Z,100989.65
2023-08-14T06:11:29.496Z,100993.02
2023-08-14T06:13:56.809Z,100996.52
2023-08-14T06:16:24.150Z,100993.98
2023-08-14T06:18:51.389Z,100996.20
2023-08-14T06:21:21.398Z,100997.27
2023-08-14T06:23:48.480Z,101000.05
2023-08-14T06:26:16.268Z,101001.17
2023-08-14T06:28:43.502Z,101002.98
2023-08-14T06:31:10.775Z,101001.84
2023-08-14T06:33:38.912Z,100999.88
2023-08-14T06:36:06.936Z,101000.46
2023-08-14T06:38:35.100Z,101006.67
2023-08-14T06:41:02.262Z,101012.35
2023-08-14T06:43:29.412Z,101011.83
2023-08-14T06:45:56.478Z,101010.84
2023-08-14T06:48:23.571Z,101013.80
2023-08-14T06:50:50.707Z,101017.40
2023-08-14T06:53:19.274Z,101015.65
2023-08-14T06:55:48.799Z,101021.10
2023-08-14T06:58:15.918Z,101021.90
2023-08-14T07:00:42.980Z,101023.77
2023-08-14T07:03:10.259Z,101025.27
2023-08-14T07:05:37.566Z,101027.14
2023-08-14T07:08:05.118Z,101027.33
2023-08-14T07:10:32.346Z,101026.46
2023-08-14T07:13:00.361Z,101028.63
2023-08-14T07:15:28.062Z,101024.98
2023-08-14T07:17:55.313Z,101027.02
2023-08-14T07:20:25.793Z,101029.48
2023-08-14T07:22:55.657Z,101028.45
2023-08-14T07:25:25.673Z,101031.54
2023-08-14T07:27:52.887Z,101029.36
2023-08-14T07:30:20.116Z,101028.39
2023-08-14T07:32:47.407Z,101025.36
2023-08-14T07:35:14.725Z,101023.69
2023-08-14T07:37:41.923Z,101024.21
2023-08-14T07:40:09.709Z,101025.81
2023-08-14T07:42:36.842Z,101022.38
2023-08-14T07:45:04.294Z,101022.81
2023-08-14T07:47:31.523Z,101022.60
2023-08-14T07:49:58.673Z,101018.92
2023-08-14T07:52:26.131Z,101020.19
2023-08-14T07:54:53.393Z,101021.65
2023-08-14T07:57:22.092Z,101020.67
2023-08-14T07:59:49.236Z,101021.17
2023-08-14T08:02:16.832Z,101019.09
2023-08-14T08:04:44.261Z,101018.66
2023-08-14T08:07:11.455Z,101020.16
2023-08-14T08:09:38.593Z,101024.74
2023-08-14T08:12:06.489Z,101021.02
2023-08-14T08:14:35.352Z,101021.11
2023-08-14T08:17:07.222Z,101020.22
2023-08-14T08:19:34.361Z,101018.68
2023-08-14T08:22:01.463Z,101019.48
2023-08-14T08:24:28.662Z,101020.18
2023-08-14T08:26:55.959Z,101023.42
2023-08-14T08:29:23.314Z,101023.08
2023-08-14T08:31:50.538Z,101023.52
2023-08-14T08:34:17.694Z,101022.55
2023-08-14T08:36:44.781Z,101021.54
2023-08-14T08:39:11.981Z,101021.70
2023-08-14T08:41:45.238Z,101021.60
2023-08-14T08:44:24.331Z,101020.13
2023-08-14T08:46:56.103Z,101020.16
2023-08-14T08:49:23.271Z,101017.23
2023-08-14T08:51:50.654Z,101016.09
2023-08-14T08:54:17.855Z,101015.94
2023-08-14T08:56:44.904Z,101010.31
2023-08-14T08:59:13.380Z,101013.83
2023-08-14T09:01:42.868Z,101011.74
2023-08-14T09:04:10.229Z,101015.13
2023-08-14T09:06:38.501Z,101011.20
2023-08-14T09:09:05.978Z,101010.95
2023-08-14T09:11:33.025Z,101010.70
2023-08-14T09:14:00.289Z,101007.91
2023-08-14T09:16:28.884Z,101013.84
2023-08-14T09:18:59.690Z,101005.86
2023-08-14T09:21:28.078Z,101001.98
2023-08-14T09:23:55.928Z,100997.68
2023-08-14T09:26:23.616Z,100995.33
2023-08-14T09:28:50.891Z,100995.36
2023-08-14T09:31:18.480Z,100994.92
2023-08-14T09:33:46.549Z,100990.14
2023-08-14T09:36:14.477Z,100988.06
2023-08-14T09:38:41.641Z,100987.98
2023-08-14T09:41:10.259Z,100984.27
2023-08-14T09:43:37.441Z,100983.20
2023-08-14T09:46:04.825Z,100980.48
2023-08-14T09:48:48.846Z,100975.19
2023-08-14T09:51:17.807Z,100971.34
2023-08-14T09:53:49.147Z,100968.42
2023-08-14T09:56:18.570Z,100968.15
2023-08-14T09:58:48.329Z,100966.96
2023-08-14T10:01:20.122Z,100965.64
2023-08-14T10:03:58.601Z,100967.77
2023-08-14T10:06:26.613Z,100967.15
2023-08-14T10:08:56.614Z,100967.52
2023-08-14T10:11:24.383Z,100967.24
2023-08-14T10:13:54.580Z,100963.39
2023-08-14T10:16:29.520Z,100959.65
2023-08-14T10:18:57.937Z,100955.84
2023-08-14T10:21:30.362Z,100952.54
2023-08-14T10:23:58.161Z,100946.55
2023-08-14T10:26:27.826Z,100944.54
2023-08-14T10:28:55.616Z,100941.45
2023-08-14T10:31:22.759Z,100947.58
2023-08-14T10:33:49.920Z,100944.83
2023-08-14T10:36:21.126Z,100943.98
2023-08-14T10:38:48.848Z,100947.46
2023-08-14T10:41:17.894Z,100946.97
2023-08-14T10:43:48.970Z,100944.34
2023-08-14T10:46:16.282Z,100940.64
2023-08-14T10:48:45.085Z,100930.09
2023-08-14T10:51:14.647Z,100929.16
2023-08-14T10:53:42.430Z,100925.64
2023-08-14T10:56:11.584Z,100923.58
2023-08-14T10:58:39.797Z,100921.64
2023-08-14T11:01:08.494Z,100922.50
2023-08-14T11:03:55.434Z,100921.21
2023-08-14T11:06:27.119Z,100921.17
2023-08-14T11:09:02.990Z,100918.73
2023-08-14T11:11:30.185Z,100916.89
2023-08-14T11:13:58.055Z,100919.95
2023-08-14T11:16:25.416Z,100909.40
2023-08-14T11:18:52.904Z,100905.42
2023-08-14T11:21:31.624Z,100909.58
2023-08-14T11:24:00.053Z,100905.05
2023-08-14T11:26:33.241Z,100901.17
2023-08-14T11:29:00.464Z,100898.43
2023-08-14T11:31:34.195Z,100899.48
2023-08-14T11:34:02.143Z,100896.39
2023-08-14T11:36:34.511Z,100893.88
2023-08-14T11:39:02.182Z,100892.45
2023-08-14T11:41:32.404Z,100893.67
2023-08-14T11:43:59.673Z,100896.45
2023-08-14T11:46:27.009Z,100893.50
2023-08-14T11:48:54.137Z,100893.16
2023-08-14T11:51:21.591Z,100891.52
2023-08-14T11:53:49.103Z,100886.70
2023-08-14T11:56:16.441Z,100883.52
2023-08-14T11:58:47.975Z,100881.38
2023-08-14T12:01:19.390Z,100881.81
2023-08-14T12:03:47.649Z,100875.68
2023-08-14T12:06:14.728Z,100877.68
2023-08-14T12:08:42.555Z,100875.48
2023-08-14T12:11:11.076Z,100879.34
2023-08-14T12:13:39.212Z,100879.80
2023-08-14T12:16:11.802Z,100879.48
2023-08-14T12:18:47.143Z,100876.30
2023-08-14T12:21:14.295Z,100871.67
2023-08-14T12:23:48.638Z,100868.48
2023-08-14T12:26:16.629Z,100860.85
2023-08-14T12:28:44.675Z,100860.66
2023-08-14T12:31:12.657Z,100860.77
2023-08-14T12:33:44.081Z,100851.61
2023-08-14T12:36:12.601Z,100850.08
2023-08-14T12:38:39.850Z,100841.41
2023-08-14T12:41:07.110Z,100848.25
2023-08-14T12:43:40.177Z,100842.55
2023-08-14T12:46:12.928Z,100840.80
2023-08-14T12:48:40.995Z,100836.29
2023-08-14T12:53:41.934Z,100835.24
2023-08-14T12:56:09.140Z,100832.91
2023-08-14T12:58:36.257Z,100835.67
2023-08-14T13:01:05.530Z,100832.58
2023-08-14T13:03:36.957Z,100828.29
2023-08-14T13:06:06.612Z,100826.02
2023-08-14T13:08:33.846Z,100827.24
2023-08-14T13:11:00.978Z,100827.21
2023-08-14T13:13:28.635Z,100825.52
2023-08-14T13:15:56.802Z,100827.56
2023-08-14T13:18:24.606Z,100825.17
2023-08-14T13:20:51.978Z,100818.77
2023-08-14T13:23:19.171Z,100818.48
2023-08-14T13:25:46.259Z,100816.88
2023-08-14T13:28:13.658Z,100814.45
2023-08-14T13:30:43.251Z,100814.39
2023-08-14T13:33:12.925Z,100809.77
2023-08-14T13:35:40.339Z,100805.11
2023-08-14T13:38:07.602Z,100800.27
2023-08-14T13:40:35.066Z,100801.98
2023-08-14T13:43:02.422Z,100798.45
2023-08-14T13:45:30.840Z,100799.95
2023-08-14T13:47:58.758Z,100797.08
2023-08-14T13:50:33.061Z,100795.77
2023-08-14T13:53:04.276Z,100794.45
2023-08-14T13:55:32.626Z,100790.89
2023-08-14T13:58:00.309Z,100790.41
2023-08-14T14:00:30.127Z,100784.04
2023-08-14T14:03:00.173Z,100787.23
2023-08-14T14:05:28.520Z,100785.70
2023-08-14T14:07:57.690Z,100783.59
2023-08-14T14:10:26.625Z,100787.76
2023-08-14T14:15:24.700Z,100786.35
2023-08-14T14:17:51.944Z,100780.35
2023-08-14T14:20:19.321Z,100778.85
2023-08-14T14:22:47.556Z,100775.98
2023-08-14T14:25:14.779Z,100780.59
2023-08-14T14:27:41.914Z,100774.30
2023-08-14T14:30:09.539Z,100770.82
2023-08-14T14:32:36.807Z,100768.06
2023-08-14T14:35:04.329Z,100767.77
2023-08-14T14:37:32.636Z,100766.23
2023-08-14T14:39:59.852Z,100766.54
2023-08-14T14:42:26.998Z,100768.44
2023-08-14T14:44:55.088Z,100768.75
2023-08-14T14:47:25.634Z,100766.55
2023-08-14T14:49:53.083Z,100766.88
2023-08-14T14:52:20.555Z,100766.96
2023-08-14T14:54:48.381Z,100762.25
2023-08-14T14:57:18.892Z,100761.57
2023-08-14T14:59:48.184Z,100763.08
2023-08-14T15:02:27.604Z,100766.72
2023-08-14T15:04:56.958Z,100762.23
2023-08-14T15:07:24.106Z,100759.31
2023-08-14T15:09:51.188Z,100762.69
2023-08-14T15:12:18.434Z,100761.75
2023-08-14T15:14:46.014Z,100751.66
2023-08-14T15:17:15.886Z,100757.67
2023-08-14T15:19:43.647Z,100756.22
2023-08-14T15:22:10.775Z,100752.94
2023-08-14T15:24:37.856Z,100754.18
2023-08-14T15:27:07.906Z,100756.19
2023-08-14T15:29:35.069Z,100755.98
2023-08-14T15:32:02.266Z,100749.41
2023-08-14T15:34:30.674Z,100747.09
2023-08-14T15:36:58.765Z,100747.68
2023-08-14T15:39:30.711Z,100745.70
2023-08-14T15:41:57.867Z,100743.02
2023-08-14T15:44:25.807Z,100744.99
2023-08-14T15:46:53.048Z,100743.53
2023-08-14T15:49:20.662Z,100740.38
2023-08-14T15:51:47.813Z,100737.98
2023-08-14T15:54:14.925Z,100739.73
2023-08-14T15:56:42.178Z,100739.58
2023-08-14T15:59:11.080Z,100737.61
2023-08-14T16:01:38.174Z,100738.21
2023-08-14T16:04:05.621Z,100731.66
2023-08-14T16:06:32.842Z,100730.78
2023-08-14T16:08:59.929Z,100732.31
2023-08-14T16:11:27.103Z,100734.61
2023-08-14T16:13:54.342Z,100733.64
2023-08-14T16:16:21.480Z,100732.61
2023-08-14T16:18:48.718Z,100730.33
2023-08-14T16:21:15.852Z,100731.02
2023-08-14T16:23:43.001Z,100729.58
2023-08-14T16:26:10.095Z,100728.95
2023-08-14T16:28:37.270Z,100728.86
2023-08-14T16:31:06.247Z,100724.03
2023-08-14T16:33:33.413Z,100725.56
2023-08-14T16:36:00.668Z,100725.27
2023-08-14T16:38:27.759Z,100720.29
2023-08-14T16:40:54.889Z,100719.62
2023-08-14T16:43:22.011Z,100720.64
2023-08-14T16:45:49.591Z,100721.42
2023-08-14T16:48:17.887Z,100726.27
2023-08-14T16:50:45.375Z,100718.66
2023-08-14T16:53:12.562Z,100721.32
2023-08-14T16:55:41.445Z,100720.48
2023-08-14T16:58:08.533Z,100718.05
2023-08-14T17:00:35.851Z,100719.33
2023-08-14T17:03:04.022Z,100717.62
2023-08-14T17:05:32.663Z,100718.24
2023-08-14T17:07:59.642Z,100715.70
2023-08-14T17:10:27.672Z,100718.84
2023-08-14T17:12:54.797Z,100715.19
2023-08-14T17:15:22.708Z,100713.98
2023-08-14T17:17:52.830Z,100716.46
2023-08-14T17:20:20.142Z,100715.71
2023-08-14T17:22:47.356Z,100716.45
2023-08-14T17:25:14.739Z,100717.15
2023-08-14T17:27:43.270Z,100722.15
2023-08-14T17:30:10.671Z,100724.34
2023-08-14T17:32:39.639Z,100728.70
2023-08-14T17:35:07.097Z,100729.11
2023-08-14T17:37:34.242Z,100730.66
2023-08-14T17:40:02.726Z,100730.21
2023-08-14T17:42:30.177Z,100730.48
2023-08-14T17:44:57.298Z,100731.95
2023-08-14T17:47:25.241Z,100729.14
2023-08-14T17:49:55.513Z,100734.86
2023-08-14T17:52:22.804Z,100740.13
2023-08-14T17:54:49.950Z,100742.04
2023-08-14T17:57:17.091Z,100748.91
2023-08-14T17:59:44.872Z,100750.32
2023-08-14T18:02:12.129Z,100752.94
2023-08-14T18:04:39.269Z,100756.81
2023-08-14T18:07:06.381Z,100754.70
2023-08-14T18:09:34.092Z,100756.18
2023-08-14T18:12:01.289Z,100754.85
2023-08-14T18:14:28.432Z,100760.19
2023-08-14T18:16:55.896Z,100760.38
2023-08-14T18:19:29.741Z,100762.86
2023-08-14T18:21:58.605Z,100764.32
2023-08-14T18:24:27.216Z,100768.10
2023-08-14T18:26:54.761Z,100773.27
2023-08-14T18:29:22.888Z,100777.70
2023-08-14T18:31:50.612Z,100779.13
2023-08-14T18:34:22.760Z,100782.84
2023-08-14T18:36:49.954Z,100782.04
2023-08-14T18:39:17.108Z,100785.79
2023-08-14T18:41:45.015Z,100789.20
2023-08-14T18:44:12.357Z,100791.44
2023-08-14T18:46:39.579Z,100795.88
2023-08-14T18:49:06.931Z,100797.86
2023-08-14T18:51:34.042Z,100800.13
2023-08-14T18:54:02.880Z,100803.46
2023-08-14T18:56:30.063Z,100804.65
2023-08-14T18:58:59.349Z,100812.52
2023-08-14T19:01:26.548Z,100810.08
2023-08-14T19:03:53.782Z,100813.02
2023-08-14T19:06:20.913Z,100816.77
2023-08-14T19:08:50.225Z,100812.63
2023-08-14T19:11:17.565Z,100812.89
2023-08-14T19:13:44.719Z,100816.39
2023-08-14T19:16:11.981Z,100820.31
2023-08-14T19:18:39.407Z,100822.33
2023-08-14T19:21:07.492Z,100823.67
2023-08-14T19:23:34.668Z,100823.73
2023-08-14T19:26:08.993Z,100821.88
2023-08-14T19:28:42.488Z,100815.09
2023-08-14T19:31:09.810Z,100814.73
2023-08-14T19:33:37.104Z,100813.21
2023-08-14T19:36:05.161Z,100816.44
2023-08-14T19:38:32.768Z,100817.81
2023-08-14T19:41:01.980Z,100821.15
2023-08-14T19:43:29.658Z,100825.52
2023-08-14T19:45:56.774Z,100824.59
2023-08-14T19:48:23.891Z,100828.31
2023-08-14T19:50:51.281Z,100828.86
2023-08-14T19:53:18.494Z,100835.50
2023-08-14T19:55:45.543Z,100837.04
2023-08-14T19:58:16.781Z,100842.96
2023-08-14T20:00:43.907Z,100850.02
2023-08-14T20:03:11.443Z,100855.23
2023-08-14T20:05:39.771Z,100851.44
2023-08-14T20:08:07.054Z,100846.39
2023-08-14T20:10:34.168Z,100847.55
2023-08-14T20:13:01.293Z,100845.65
2023-08-14T20:15:28.549Z,100848.19
2023-08-14T20:17:55.883Z,100847.92
2023-08-14T20:20:23.655Z,100846.79
2023-08-14T20:22:51.700Z,100846.14
2023-08-14T20:25:19.292Z,100846.78
2023-08-14T20:27:46.327Z,100846.85
2023-08-14T20:30:14.467Z,100847.03
2023-08-14T20:32:41.559Z,100849.41
2023-08-14T20:35:09.732Z,100852.32
2023-08-14T20:37:37.673Z,100852.11
2023-08-14T20:40:06.302Z,100854.98
2023-08-14T20:42:33.494Z,100857.39
2023-08-14T20:45:00.636Z,100854.05
2023-08-14T20:47:27.791Z,100854.16
2023-08-14T20:49:55.207Z,100850.64
2023-08-14T20:52:23.606Z,100849.05
2023-08-14T20:54:51.275Z,100845.46
2023-08-14T20:57:19.562Z,100849.74
2023-08-14T20:59:48.771Z,100850.02
2023-08-14T21:02:20.230Z,100849.58
2023-08-14T21:04:48.154Z,100851.02
2023-08-14T21:07:15.382Z,100846.16
2023-08-14T21:09:42.538Z,100848.94
2023-08-14T21:12:09.996Z,100847.90
2023-08-14T21:14:37.183Z,100845.72
2023-08-14T21:17:04.322Z,100844.73
2023-08-14T21:19:31.500Z,100840.98
2023-08-14T21:21:58.759Z,100839.48
2023-08-14T21:24:25.866Z,100840.83
2023-08-14T21:26:53.032Z,100837.26
2023-08-14T21:29:20.707Z,100839.69
2023-08-14T21:31:48.164Z,100837.86
2023-08-14T21:34:17.432Z,100833.56
2023-08-14T21:36:44.564Z,100836.70
2023-08-14T21:39:11.789Z,100839.63
2023-08-14T21:41:38.925Z,100842.52
2023-08-14T21:44:06.252Z,100840.52
2023-08-14T21:46:35.216Z,100843.52
2023-08-14T21:49:02.743Z,100841.41
2023-08-14T21:51:30.019Z,100843.98
2023-08-14T21:53:57.203Z,100847.27
2023-08-14T21:56:24.276Z,100848.45
2023-08-14T21:58:51.392Z,100850.27
2023-08-14T22:01:18.550Z,100856.65
2023-08-14T22:03:45.703Z,100856.55
2023-08-14T22:06:13.661Z,100856.55
2023-08-14T22:08:40.757Z,100854.13
2023-08-14T22:11:07.838Z,100854.40
2023-08-14T22:13:35.692Z,100855.45
2023-08-14T22:16:02.904Z,100854.94
2023-08-14T22:18:30.280Z,100854.88
2023-08-14T22:20:57.445Z,100855.97
2023-08-14T22:23:24.587Z,100852.80
2023-08-14T22:25:51.650Z,100853.60
2023-08-14T22:28:18.738Z,100854.21
2023-08-14T22:30:45.816Z,100850.36
2023-08-14T22:33:12.955Z,100850.28
2023-08-14T22:35:40.203Z,100846.04
2023-08-14T22:38:08.960Z,100846.73
2023-08-14T22:40:36.865Z,100848.13
2023-08-14T22:43:04.088Z,100845.73
2023-08-14T22:48:04.305Z,100852.49
2023-08-14T22:50:31.586Z,100852.58
2023-08-14T22:52:58.909Z,100850.60
2023-08-14T22:55:26.664Z,100848.48
2023-08-14T22:57:59.632Z,100844.35
2023-08-14T23:00:28.032Z,100840.78
2023-08-14T23:02:59.170Z,100840.34
2023-08-14T23:05:26.285Z,100839.43
2023-08-14T23:07:54.712Z,100838.31
2023-08-14T23:10:23.751Z,100837.95
2023-08-14T23:12:50.868Z,100833.83
2023-08-14T23:15:18.656Z,100834.88
2023-08-14T23:17:45.809Z,100832.60
2023-08-14T23:20:15.368Z,100831.73
2023-08-14T23:22:42.643Z,100830.52
2023-08-14T23:25:14.915Z,100829.30
2023-08-14T23:27:44.068Z,100826.91
2023-08-14T23:30:17.080Z,100825.88
2023-08-14T23:32:46.753Z,100826.60
2023-08-14T23:35:13.836Z,100825.34
2023-08-14T23:37:41.056Z,100825.86
2023-08-14T23:40:09.565Z,100826.95
2023-08-14T23:42:45.978Z,100825.08
2023-08-14T23:45:13.512Z,100822.80
2023-08-14T23:47:40.612Z,100825.73
2023-08-14T23:50:08.141Z,100824.73
2023-08-14T23:52:35.716Z,100826.81
2023-08-14T23:55:02.909Z,100828.17
2023-08-14T23:57:30.044Z,100826.65
2023-08-14T23:59:57.660Z,100827.73
